Terminal Aerodrome Forecast
Issued by NWS

Home | Current Version | Previous Version | Text Only | Print | Product List | Glossary On
Versions: 1 2 3 4 5 6 7 8 9 10 11 12 13
000
FTUS44 KLIX 292320
TAFMSY
TAF
KMSY 292320Z 3000/3024 16006KT P6SM FEW025 FEW090 BKN130
     FM300200 20005KT P6SM FEW080 SCT250
     FM301500 24005KT P6SM FEW035 SCT250=

USA.gov is the U.S. government's official web portal to all federal, state and local government web resources and services.